Time;durP1;ratioP1;P1;durP2;ratioP2;P2;SDS_P1;SDS_P2;PMS_P1;PMS_P2;Temp;Humidity;BMP_temperature;BMP_pressure;BME280_temperature;BME280_humidity;BME280_pressure;Samples;Min_cycle;Max_cycle;Signal;HPM_P1;HPM_P2
2023/08/12 00:00:11;;;;;;;0.20;0.20;;;;;;;;;;5016508;28;20392;-79
2023/08/12 00:02:39;;;;;;;0.20;0.20;;;;;;;;;;5034963;28;20064;-79
2023/08/12 00:05:05;;;;;;;0.20;0.20;;;;;;;;;;5012459;28;20461;-79
2023/08/12 00:07:32;;;;;;;0.20;0.20;;;;;;;;;;5015321;28;20050;-79
2023/08/12 00:09:58;;;;;;;0.20;0.20;;;;;;;;;;5015130;28;20040;-77
2023/08/12 00:12:23;;;;;;;0.30;0.30;;;;;;;;;;5029424;28;20108;-76
2023/08/12 00:14:49;;;;;;;0.20;0.20;;;;;;;;;;5033493;28;20392;-75
2023/08/12 00:17:14;;;;;;;0.35;0.35;;;;;;;;;;5033478;28;20037;-79
2023/08/12 00:19:40;;;;;;;0.20;0.20;;;;;;;;;;5028607;28;20354;-79
2023/08/12 00:22:06;;;;;;;0.25;0.20;;;;;;;;;;5034492;28;20059;-78
2023/08/12 00:24:31;;;;;;;0.22;0.22;;;;;;;;;;5034558;28;20061;-78
2023/08/12 00:26:57;;;;;;;0.20;0.20;;;;;;;;;;5026434;28;20045;-79
2023/08/12 00:29:22;;;;;;;0.20;0.20;;;;;;;;;;5015309;28;20132;-79
2023/08/12 00:31:48;;;;;;;0.30;0.30;;;;;;;;;;5025668;28;20128;-77
2023/08/12 00:34:14;;;;;;;0.25;0.25;;;;;;;;;;5035060;28;20080;-77
2023/08/12 00:36:39;;;;;;;0.20;0.20;;;;;;;;;;5034984;28;20033;-79
2023/08/12 00:39:06;;;;;;;0.20;0.20;;;;;;;;;;5034697;28;20037;-76
2023/08/12 00:41:31;;;;;;;0.25;0.25;;;;;;;;;;5000743;28;20040;-78
2023/08/12 00:43:57;;;;;;;0.20;0.20;;;;;;;;;;5016859;28;20037;-76
2023/08/12 00:46:24;;;;;;;0.20;0.20;;;;;;;;;;5016808;28;20518;-77
2023/08/12 00:48:49;;;;;;;0.10;0.10;;;;;;;;;;5032358;28;20048;-76
2023/08/12 00:51:18;;;;;;;0.20;0.20;;;;;;;;;;5033430;28;20030;-76
2023/08/12 00:53:45;;;;;;;0.20;0.20;;;;;;;;;;5033872;28;20040;-76
2023/08/12 00:56:12;;;;;;;0.20;0.20;;;;;;;;;;5034525;28;20033;-76
2023/08/12 00:58:38;;;;;;;0.20;0.20;;;;;;;;;;5033796;28;20042;-76
2023/08/12 01:01:03;;;;;;;0.20;0.20;;;;;;;;;;5031999;28;20049;-76
2023/08/12 01:03:30;;;;;;;0.20;0.20;;;;;;;;;;5032183;28;20033;-77
2023/08/12 01:05:55;;;;;;;0.10;0.10;;;;;;;;;;5014649;28;20029;-77
2023/08/12 01:08:24;;;;;;;0.20;0.20;;;;;;;;;;5032818;28;20041;-78
2023/08/12 01:10:53;;;;;;;0.30;0.30;;;;;;;;;;5033214;28;20060;-78
2023/08/12 01:13:18;;;;;;;0.20;0.20;;;;;;;;;;5015323;28;20167;-76
2023/08/12 01:15:44;;;;;;;0.20;0.20;;;;;;;;;;5016638;28;20067;-77
2023/08/12 01:18:11;;;;;;;0.17;0.17;;;;;;;;;;5016189;28;20025;-77
2023/08/12 01:20:36;;;;;;;0.17;0.17;;;;;;;;;;5033880;28;20044;-77
2023/08/12 01:23:14;;;;;;;0.20;0.20;;;;;;;;;;5033779;28;20484;-79
2023/08/12 01:25:40;;;;;;;0.20;0.20;;;;;;;;;;5016437;28;20041;-79
2023/08/12 01:28:07;;;;;;;0.20;0.20;;;;;;;;;;5016335;28;20037;-78
2023/08/12 01:30:35;;;;;;;0.20;0.20;;;;;;;;;;4999920;28;20045;-80
2023/08/12 01:33:04;;;;;;;0.20;0.20;;;;;;;;;;5016124;28;20033;-76
2023/08/12 01:35:40;;;;;;;0.20;0.20;;;;;;;;;;5033873;28;20044;-76
2023/08/12 01:38:06;;;;;;;0.10;0.10;;;;;;;;;;5015874;28;20048;-76
2023/08/12 01:40:32;;;;;;;0.20;0.20;;;;;;;;;;5016006;28;20040;-78
2023/08/12 01:42:58;;;;;;;0.10;0.10;;;;;;;;;;4999536;28;20041;-76
2023/08/12 01:45:24;;;;;;;0.20;0.20;;;;;;;;;;5015966;28;20057;-77
2023/08/12 01:47:51;;;;;;;0.10;0.10;;;;;;;;;;5033306;28;20110;-76
2023/08/12 01:50:16;;;;;;;0.20;0.20;;;;;;;;;;5033668;28;20511;-76
2023/08/12 01:52:42;;;;;;;0.20;0.20;;;;;;;;;;5033635;28;20080;-76
2023/08/12 01:55:08;;;;;;;0.20;0.20;;;;;;;;;;5015739;28;20060;-76
2023/08/12 01:57:34;;;;;;;0.20;0.20;;;;;;;;;;5033421;28;20080;-77
2023/08/12 02:00:00;;;;;;;0.20;0.20;;;;;;;;;;5033247;28;20029;-77
2023/08/12 02:02:26;;;;;;;0.20;0.20;;;;;;;;;;5033623;28;20428;-76
2023/08/12 02:04:51;;;;;;;0.25;0.25;;;;;;;;;;5033524;28;20021;-77
2023/08/12 02:07:17;;;;;;;0.20;0.20;;;;;;;;;;5015700;28;20040;-75
2023/08/12 02:09:42;;;;;;;0.20;0.20;;;;;;;;;;5033229;28;20455;-76
2023/08/12 02:12:08;;;;;;;0.20;0.20;;;;;;;;;;5033142;28;20029;-76
2023/08/12 02:14:33;;;;;;;0.20;0.20;;;;;;;;;;5034973;28;20087;-76
2023/08/12 02:16:59;;;;;;;0.10;0.10;;;;;;;;;;5034827;28;20089;-76
2023/08/12 02:19:24;;;;;;;0.15;0.15;;;;;;;;;;5034255;28;20037;-75
2023/08/12 02:21:50;;;;;;;0.17;0.17;;;;;;;;;;5033530;28;20037;-76
2023/08/12 02:24:15;;;;;;;0.20;0.20;;;;;;;;;;5033360;28;20354;-76
2023/08/12 02:26:41;;;;;;;0.20;0.20;;;;;;;;;;5015456;28;20041;-77
2023/08/12 02:29:06;;;;;;;0.20;0.20;;;;;;;;;;5015534;28;20030;-78
2023/08/12 02:31:32;;;;;;;0.17;0.17;;;;;;;;;;5015234;28;20044;-76
2023/08/12 02:33:57;;;;;;;0.20;0.20;;;;;;;;;;5032746;28;20018;-76
2023/08/12 02:36:25;;;;;;;0.20;0.20;;;;;;;;;;5032895;28;20041;-76
2023/08/12 02:38:50;;;;;;;0.30;0.30;;;;;;;;;;5032788;28;20124;-76
2023/08/12 02:41:16;;;;;;;0.20;0.20;;;;;;;;;;5032805;28;20112;-76
2023/08/12 02:43:41;;;;;;;0.20;0.20;;;;;;;;;;5032767;28;20029;-76
2023/08/12 02:46:07;;;;;;;0.20;0.20;;;;;;;;;;5014908;28;20121;-76
2023/08/12 02:48:32;;;;;;;0.20;0.20;;;;;;;;;;5031296;28;20099;-76
2023/08/12 02:50:58;;;;;;;0.20;0.20;;;;;;;;;;5032152;28;20045;-77
2023/08/12 02:53:23;;;;;;;0.20;0.20;;;;;;;;;;5015122;28;20030;-75
2023/08/12 02:55:49;;;;;;;0.20;0.20;;;;;;;;;;5032778;28;20033;-77
2023/08/12 02:58:14;;;;;;;0.20;0.20;;;;;;;;;;5014911;28;20095;-76
2023/08/12 03:00:45;;;;;;;0.20;0.20;;;;;;;;;;5031293;28;20033;-76
2023/08/12 03:03:11;;;;;;;0.20;0.20;;;;;;;;;;5028338;28;20033;-79
2023/08/12 03:05:37;;;;;;;0.10;0.10;;;;;;;;;;5027331;28;20045;-75
2023/08/12 03:08:04;;;;;;;0.20;0.20;;;;;;;;;;5010909;28;20377;-77
2023/08/12 03:10:30;;;;;;;0.20;0.20;;;;;;;;;;5028919;28;20033;-79
2023/08/12 03:12:56;;;;;;;0.20;0.20;;;;;;;;;;5011091;28;20037;-75
2023/08/12 03:15:21;;;;;;;0.20;0.20;;;;;;;;;;5010792;28;20048;-76
2023/08/12 03:17:47;;;;;;;0.10;0.10;;;;;;;;;;5028019;28;20068;-75
2023/08/12 03:20:12;;;;;;;0.10;0.10;;;;;;;;;;5010801;28;20041;-76
2023/08/12 03:22:39;;;;;;;0.20;0.20;;;;;;;;;;5027484;28;20030;-76
2023/08/12 03:25:05;;;;;;;0.20;0.20;;;;;;;;;;5027512;28;20038;-77
2023/08/12 03:27:32;;;;;;;0.20;0.20;;;;;;;;;;5028680;28;20043;-77
2023/08/12 03:29:58;;;;;;;0.20;0.20;;;;;;;;;;5010519;28;20025;-77
2023/08/12 03:32:25;;;;;;;0.20;0.20;;;;;;;;;;5028233;28;20034;-77
2023/08/12 03:34:51;;;;;;;0.20;0.20;;;;;;;;;;5010556;28;20045;-77
2023/08/12 03:37:16;;;;;;;0.20;0.20;;;;;;;;;;5028596;28;20033;-76
2023/08/12 03:39:42;;;;;;;0.20;0.20;;;;;;;;;;5027936;28;20034;-76
2023/08/12 03:42:08;;;;;;;0.20;0.20;;;;;;;;;;5010670;28;20061;-76
2023/08/12 03:44:33;;;;;;;0.20;0.20;;;;;;;;;;5010063;28;20122;-76
2023/08/12 03:46:59;;;;;;;0.20;0.20;;;;;;;;;;5027806;28;20061;-76
2023/08/12 03:49:25;;;;;;;0.22;0.22;;;;;;;;;;5010587;28;20037;-75
2023/08/12 03:51:51;;;;;;;0.13;0.13;;;;;;;;;;5027788;28;20378;-75
2023/08/12 03:54:17;;;;;;;0.20;0.20;;;;;;;;;;5027706;28;20092;-75
2023/08/12 03:56:43;;;;;;;0.10;0.10;;;;;;;;;;5009943;28;20036;-75
2023/08/12 03:59:10;;;;;;;0.20;0.20;;;;;;;;;;5009852;28;20030;-75
2023/08/12 04:01:36;;;;;;;0.30;0.30;;;;;;;;;;5009721;28;20043;-76
2023/08/12 04:04:02;;;;;;;0.20;0.20;;;;;;;;;;5011866;28;20096;-79
2023/08/12 04:06:28;;;;;;;0.20;0.20;;;;;;;;;;5031379;28;20063;-77
2023/08/12 04:08:53;;;;;;;0.20;0.20;;;;;;;;;;5031216;28;20785;-79
2023/08/12 04:11:19;;;;;;;0.20;0.20;;;;;;;;;;5013455;28;20052;-79
2023/08/12 04:13:45;;;;;;;0.20;0.20;;;;;;;;;;5031479;28;20066;-79
2023/08/12 04:16:12;;;;;;;0.10;0.10;;;;;;;;;;5035790;28;20056;-78
2023/08/12 04:18:37;;;;;;;0.20;0.20;;;;;;;;;;5035321;28;20037;-75
2023/08/12 04:21:03;;;;;;;0.30;0.30;;;;;;;;;;5031547;28;20484;-76
2023/08/12 04:23:28;;;;;;;0.15;0.15;;;;;;;;;;5031118;28;20037;-76
2023/08/12 04:25:54;;;;;;;0.20;0.20;;;;;;;;;;5030784;28;20038;-75
2023/08/12 04:28:23;;;;;;;0.20;0.20;;;;;;;;;;5012981;28;20030;-75
2023/08/12 04:30:50;;;;;;;0.20;0.20;;;;;;;;;;5013153;28;20041;-76
2023/08/12 04:33:16;;;;;;;0.30;0.30;;;;;;;;;;5030950;28;20033;-76
2023/08/12 04:35:42;;;;;;;0.20;0.20;;;;;;;;;;5013021;28;20033;-76
2023/08/12 04:38:08;;;;;;;0.22;0.22;;;;;;;;;;5012701;28;20041;-75
2023/08/12 04:40:34;;;;;;;0.20;0.20;;;;;;;;;;5012963;28;20061;-75
2023/08/12 04:43:01;;;;;;;0.20;0.20;;;;;;;;;;5029173;28;20037;-78
2023/08/12 04:45:28;;;;;;;0.20;0.20;;;;;;;;;;5031270;28;20137;-76
2023/08/12 04:47:55;;;;;;;0.20;0.20;;;;;;;;;;5014094;28;20065;-77
2023/08/12 04:50:21;;;;;;;0.10;0.10;;;;;;;;;;5032206;28;20124;-78
2023/08/12 04:52:46;;;;;;;0.20;0.20;;;;;;;;;;5053170;28;20029;-75
2023/08/12 04:55:13;;;;;;;0.20;0.20;;;;;;;;;;5051279;28;20038;-77
2023/08/12 04:57:39;;;;;;;0.20;0.20;;;;;;;;;;5013150;28;20463;-74
2023/08/12 05:00:09;;;;;;;0.20;0.20;;;;;;;;;;5012956;28;20409;-77
2023/08/12 05:02:35;;;;;;;0.20;0.20;;;;;;;;;;5013010;28;20523;-76
2023/08/12 05:05:01;;;;;;;0.20;0.20;;;;;;;;;;5029916;28;20049;-76
2023/08/12 05:07:27;;;;;;;0.20;0.20;;;;;;;;;;5012639;28;20030;-77
2023/08/12 05:09:53;;;;;;;0.20;0.20;;;;;;;;;;5012365;28;20041;-77
2023/08/12 05:12:19;;;;;;;0.20;0.20;;;;;;;;;;5012912;28;20032;-77
2023/08/12 05:14:44;;;;;;;0.20;0.20;;;;;;;;;;5030496;28;20040;-76
2023/08/12 05:17:10;;;;;;;0.20;0.20;;;;;;;;;;5012819;28;20096;-77
2023/08/12 05:19:36;;;;;;;0.20;0.20;;;;;;;;;;5030524;28;20566;-76
2023/08/12 05:22:02;;;;;;;0.20;0.20;;;;;;;;;;5030120;28;20037;-77
2023/08/12 05:24:28;;;;;;;0.20;0.20;;;;;;;;;;5029947;28;20091;-76
2023/08/12 05:26:53;;;;;;;0.20;0.20;;;;;;;;;;5030618;28;20045;-78
2023/08/12 05:29:19;;;;;;;0.20;0.20;;;;;;;;;;5030690;28;20484;-76
2023/08/12 05:31:45;;;;;;;0.20;0.20;;;;;;;;;;5029850;28;20033;-76
2023/08/12 05:34:10;;;;;;;0.20;0.20;;;;;;;;;;5030074;28;20037;-76
2023/08/12 05:36:36;;;;;;;0.10;0.10;;;;;;;;;;5040633;28;20044;-76
2023/08/12 05:39:03;;;;;;;0.20;0.20;;;;;;;;;;5029205;28;20033;-77
2023/08/12 05:41:28;;;;;;;0.20;0.20;;;;;;;;;;5011987;28;20041;-76
2023/08/12 05:43:54;;;;;;;0.20;0.20;;;;;;;;;;5029635;28;20037;-76
2023/08/12 05:46:20;;;;;;;2.65;2.40;;;;;;;;;;5029767;28;20029;-76
2023/08/12 05:48:45;;;;;;;0.22;0.22;;;;;;;;;;5029996;28;20589;-77
2023/08/12 05:51:11;;;;;;;0.10;0.10;;;;;;;;;;5030241;28;20097;-79
2023/08/12 05:53:37;;;;;;;0.32;0.32;;;;;;;;;;5029478;28;20072;-77
2023/08/12 05:56:03;;;;;;;0.20;0.20;;;;;;;;;;5029373;28;20029;-76
2023/08/12 05:58:28;;;;;;;0.20;0.20;;;;;;;;;;5030067;28;20370;-77
2023/08/12 06:00:54;;;;;;;0.20;0.20;;;;;;;;;;5029609;28;20385;-79
2023/08/12 06:03:19;;;;;;;0.20;0.20;;;;;;;;;;5029528;28;20087;-77
2023/08/12 06:05:46;;;;;;;0.47;0.47;;;;;;;;;;5029267;28;20040;-75
2023/08/12 06:08:12;;;;;;;0.20;0.20;;;;;;;;;;5029445;28;20485;-77
2023/08/12 06:10:37;;;;;;;0.22;0.22;;;;;;;;;;5029380;28;20116;-78
2023/08/12 06:13:03;;;;;;;0.20;0.20;;;;;;;;;;5029376;28;20025;-75
2023/08/12 06:15:29;;;;;;;0.20;0.20;;;;;;;;;;5031467;28;20026;-77
2023/08/12 06:17:56;;;;;;;0.20;0.20;;;;;;;;;;5030357;28;20376;-77
2023/08/12 06:20:22;;;;;;;0.20;0.20;;;;;;;;;;5029305;28;20067;-75
2023/08/12 06:22:48;;;;;;;0.30;0.30;;;;;;;;;;5029226;28;20037;-76
2023/08/12 06:25:14;;;;;;;1.17;1.08;;;;;;;;;;5029562;28;20365;-76
2023/08/12 06:27:39;;;;;;;0.45;0.45;;;;;;;;;;5028616;28;20022;-76
2023/08/12 06:30:06;;;;;;;0.30;0.30;;;;;;;;;;5029544;28;20435;-75
2023/08/12 06:32:31;;;;;;;0.20;0.20;;;;;;;;;;5011917;28;20034;-76
2023/08/12 06:34:57;;;;;;;0.20;0.20;;;;;;;;;;5029254;28;20095;-77
2023/08/12 06:37:22;;;;;;;0.57;0.57;;;;;;;;;;5028906;28;20045;-76
2023/08/12 06:39:48;;;;;;;0.20;0.20;;;;;;;;;;5028853;28;20041;-79
2023/08/12 06:42:13;;;;;;;0.20;0.20;;;;;;;;;;5029253;28;20362;-77
2023/08/12 06:44:39;;;;;;;0.30;0.30;;;;;;;;;;5029345;28;20033;-76
2023/08/12 06:47:05;;;;;;;0.30;0.30;;;;;;;;;;5028655;28;20029;-78
2023/08/12 06:49:30;;;;;;;0.68;0.47;;;;;;;;;;5029250;28;20500;-77
2023/08/12 06:51:56;;;;;;;0.95;0.80;;;;;;;;;;5028987;28;20913;-77
2023/08/12 06:54:22;;;;;;;0.30;0.30;;;;;;;;;;5029013;28;20353;-76
2023/08/12 06:56:48;;;;;;;0.30;0.30;;;;;;;;;;5029440;28;20033;-75
2023/08/12 06:59:14;;;;;;;0.20;0.20;;;;;;;;;;5028619;28;20499;-77
2023/08/12 07:01:39;;;;;;;0.20;0.20;;;;;;;;;;5028763;28;20726;-76
2023/08/12 07:04:05;;;;;;;0.43;0.43;;;;;;;;;;5010730;28;20037;-76
2023/08/12 07:06:30;;;;;;;0.30;0.30;;;;;;;;;;5028907;28;20511;-79
2023/08/12 07:08:56;;;;;;;0.90;0.88;;;;;;;;;;5028788;28;20037;-75
2023/08/12 07:11:22;;;;;;;2.10;0.80;;;;;;;;;;5028259;28;20562;-76
2023/08/12 07:13:47;;;;;;;0.20;0.20;;;;;;;;;;5028466;28;20481;-76
2023/08/12 07:16:13;;;;;;;1.00;0.80;;;;;;;;;;5028889;28;20088;-78
2023/08/12 07:18:39;;;;;;;0.28;0.28;;;;;;;;;;5028119;28;20159;-76
2023/08/12 07:21:04;;;;;;;0.60;0.60;;;;;;;;;;5008406;28;20461;-76
2023/08/12 07:23:30;;;;;;;0.20;0.20;;;;;;;;;;5011125;28;20072;-78
2023/08/12 07:25:55;;;;;;;0.20;0.20;;;;;;;;;;5010475;28;20033;-76
2023/08/12 07:28:21;;;;;;;2.50;1.40;;;;;;;;;;5028510;28;20108;-78
2023/08/12 07:30:48;;;;;;;0.98;0.93;;;;;;;;;;5028611;28;20034;-77
2023/08/12 07:33:13;;;;;;;5.15;1.77;;;;;;;;;;5028518;28;20041;-78
2023/08/12 07:35:39;;;;;;;1.10;0.77;;;;;;;;;;5010325;28;20029;-77
2023/08/12 07:38:05;;;;;;;2.92;1.13;;;;;;;;;;5012039;28;20120;-78
2023/08/12 07:40:33;;;;;;;0.20;0.20;;;;;;;;;;5031659;28;20029;-79
2023/08/12 07:42:59;;;;;;;0.50;0.47;;;;;;;;;;5031599;28;20041;-75
2023/08/12 07:45:24;;;;;;;0.50;0.50;;;;;;;;;;5031380;28;20507;-76
2023/08/12 07:47:50;;;;;;;0.50;0.50;;;;;;;;;;5031236;28;20164;-74
2023/08/12 07:50:15;;;;;;;2.30;1.05;;;;;;;;;;5031484;28;20105;-77
2023/08/12 07:52:41;;;;;;;0.38;0.38;;;;;;;;;;5033501;28;20040;-76
2023/08/12 07:55:06;;;;;;;0.30;0.30;;;;;;;;;;5031889;28;20041;-77
2023/08/12 07:57:32;;;;;;;2.78;1.35;;;;;;;;;;5031361;28;20075;-75
2023/08/12 07:59:57;;;;;;;1.52;1.42;;;;;;;;;;5031093;28;20040;-76
2023/08/12 08:02:23;;;;;;;0.68;0.68;;;;;;;;;;5036594;28;20491;-75
2023/08/12 08:04:49;;;;;;;0.47;0.47;;;;;;;;;;5021301;28;20029;-76
2023/08/12 08:07:15;;;;;;;1.27;0.70;;;;;;;;;;5024584;28;20083;-76
2023/08/12 08:09:41;;;;;;;0.60;0.60;;;;;;;;;;5031582;28;20392;-73
2023/08/12 08:12:07;;;;;;;0.95;0.82;;;;;;;;;;5032567;28;20037;-76
2023/08/12 08:14:33;;;;;;;4.95;1.60;;;;;;;;;;5043243;28;20052;-76
2023/08/12 08:16:58;;;;;;;0.30;0.30;;;;;;;;;;5048564;28;20481;-74
2023/08/12 08:19:24;;;;;;;0.95;0.70;;;;;;;;;;5028213;28;20171;-75
2023/08/12 08:21:49;;;;;;;0.30;0.30;;;;;;;;;;4993566;28;20049;-75
2023/08/12 08:24:15;;;;;;;0.30;0.30;;;;;;;;;;5028261;28;20496;-75
2023/08/12 08:26:40;;;;;;;0.30;0.30;;;;;;;;;;5027855;28;20071;-77
2023/08/12 08:29:06;;;;;;;0.35;0.35;;;;;;;;;;5027361;28;20029;-76
2023/08/12 08:31:32;;;;;;;0.40;0.40;;;;;;;;;;5027916;28;20086;-77
2023/08/12 08:33:57;;;;;;;0.43;0.43;;;;;;;;;;5027298;28;20481;-76
2023/08/12 08:36:23;;;;;;;0.30;0.30;;;;;;;;;;5027336;28;20068;-75
2023/08/12 08:38:49;;;;;;;1.17;1.08;;;;;;;;;;5027403;28;20037;-76
2023/08/12 08:41:15;;;;;;;0.40;0.40;;;;;;;;;;5028567;28;20036;-75
2023/08/12 08:43:45;;;;;;;0.30;0.30;;;;;;;;;;5011528;28;20040;-76
2023/08/12 08:46:14;;;;;;;1.73;0.90;;;;;;;;;;5030606;28;20042;-75
2023/08/12 08:48:40;;;;;;;1.42;0.80;;;;;;;;;;5030055;28;20388;-75
2023/08/12 08:51:06;;;;;;;1.58;1.08;;;;;;;;;;5030609;28;20299;-75
2023/08/12 08:53:34;;;;;;;0.95;0.82;;;;;;;;;;5013210;28;20485;-75
2023/08/12 08:56:00;;;;;;;0.40;0.40;;;;;;;;;;5031196;28;20386;-75
2023/08/12 08:58:25;;;;;;;0.60;0.60;;;;;;;;;;5029991;28;20037;-75
2023/08/12 09:00:51;;;;;;;0.50;0.50;;;;;;;;;;5030478;28;20065;-75
2023/08/12 09:03:17;;;;;;;3.17;1.60;;;;;;;;;;5030711;28;20040;-75
2023/08/12 09:05:43;;;;;;;2.70;0.88;;;;;;;;;;5029753;28;20049;-76
2023/08/12 09:08:10;;;;;;;0.98;0.68;;;;;;;;;;5012411;28;20518;-76
2023/08/12 09:10:38;;;;;;;1.55;0.85;;;;;;;;;;5012541;28;20033;-76
2023/08/12 09:13:03;;;;;;;1.80;1.08;;;;;;;;;;5030211;28;20041;-76
2023/08/12 09:15:30;;;;;;;0.30;0.30;;;;;;;;;;5030069;28;20098;-76
2023/08/12 09:17:55;;;;;;;0.40;0.40;;;;;;;;;;5030006;28;20041;-76
2023/08/12 09:20:22;;;;;;;0.40;0.40;;;;;;;;;;5030424;28;20485;-75
2023/08/12 09:22:55;;;;;;;0.98;0.85;;;;;;;;;;5029953;28;20029;-75
2023/08/12 09:25:20;;;;;;;0.60;0.50;;;;;;;;;;5030409;28;20037;-75
2023/08/12 09:27:46;;;;;;;0.47;0.47;;;;;;;;;;5012310;28;20112;-76
2023/08/12 09:30:13;;;;;;;0.75;0.75;;;;;;;;;;5029684;28;20539;-76
2023/08/12 09:32:38;;;;;;;4.75;1.10;;;;;;;;;;5029984;28;20033;-75
2023/08/12 09:35:05;;;;;;;0.70;0.70;;;;;;;;;;5030235;28;20024;-75
2023/08/12 09:37:31;;;;;;;2.17;1.05;;;;;;;;;;5029113;28;20040;-74
2023/08/12 09:39:58;;;;;;;2.28;1.75;;;;;;;;;;5028764;28;20037;-75
2023/08/12 09:42:24;;;;;;;0.50;0.50;;;;;;;;;;5029485;28;20516;-76
2023/08/12 09:44:49;;;;;;;0.60;0.60;;;;;;;;;;5029911;28;20029;-75
2023/08/12 09:47:15;;;;;;;2.95;1.42;;;;;;;;;;5027628;28;20029;-75
2023/08/12 09:49:41;;;;;;;1.83;1.25;;;;;;;;;;5027534;28;20056;-76
2023/08/12 09:52:07;;;;;;;0.50;0.50;;;;;;;;;;5027489;28;20478;-77
2023/08/12 09:54:33;;;;;;;0.60;0.60;;;;;;;;;;5028022;28;20037;-76
2023/08/12 09:57:00;;;;;;;0.30;0.30;;;;;;;;;;5027497;28;20048;-76
2023/08/12 09:59:32;;;;;;;1.05;0.82;;;;;;;;;;5027020;28;20369;-74
2023/08/12 10:01:58;;;;;;;1.50;0.80;;;;;;;;;;4992277;28;20044;-76
2023/08/12 10:04:26;;;;;;;1.27;0.90;;;;;;;;;;5010082;28;20104;-76
2023/08/12 10:06:52;;;;;;;0.40;0.40;;;;;;;;;;5028202;28;20033;-76
2023/08/12 10:09:18;;;;;;;0.82;0.73;;;;;;;;;;5039677;28;20267;-75
2023/08/12 10:11:45;;;;;;;20.88;0.75;;;;;;;;;;5023768;28;20037;-76
2023/08/12 10:14:11;;;;;;;0.60;0.60;;;;;;;;;;5037089;28;20542;-75
2023/08/12 10:16:38;;;;;;;1.02;0.93;;;;;;;;;;5028732;28;20026;-75
2023/08/12 10:19:06;;;;;;;0.30;0.30;;;;;;;;;;5027698;28;20084;-76
2023/08/12 10:21:32;;;;;;;0.75;0.68;;;;;;;;;;5027418;28;20044;-76
2023/08/12 10:23:58;;;;;;;1.33;1.15;;;;;;;;;;5026776;28;20116;-75
2023/08/12 10:26:27;;;;;;;0.30;0.30;;;;;;;;;;5029099;28;20424;-76
2023/08/12 10:28:54;;;;;;;0.40;0.40;;;;;;;;;;5024922;28;20053;-76
2023/08/12 10:31:19;;;;;;;0.70;0.70;;;;;;;;;;5025707;28;20033;-75
2023/08/12 10:33:49;;;;;;;0.50;0.50;;;;;;;;;;5026713;28;20033;-75
2023/08/12 10:36:15;;;;;;;1.35;0.98;;;;;;;;;;5026729;28;20041;-75
2023/08/12 10:38:41;;;;;;;0.80;0.80;;;;;;;;;;5027109;28;20410;-75
2023/08/12 10:41:20;;;;;;;0.73;0.60;;;;;;;;;;5026245;28;20042;-75
2023/08/12 10:43:53;;;;;;;0.47;0.47;;;;;;;;;;5007233;28;20030;-76
2023/08/12 10:46:48;;;;;;;0.52;0.52;;;;;;;;;;4993809;28;20043;-76
2023/08/12 10:49:13;;;;;;;2.78;1.88;;;;;;;;;;5005184;28;20080;-76
2023/08/12 10:51:50;;;;;;;0.60;0.60;;;;;;;;;;5017549;28;20085;-75
2023/08/12 10:54:33;;;;;;;0.50;0.50;;;;;;;;;;5005903;28;20045;-74
2023/08/12 10:57:11;;;;;;;0.55;0.55;;;;;;;;;;5007151;28;20111;-75
2023/08/12 10:59:45;;;;;;;0.57;0.57;;;;;;;;;;5006328;28;20057;-76
2023/08/12 11:02:18;;;;;;;0.32;0.32;;;;;;;;;;5007476;28;20168;-75
2023/08/12 11:04:44;;;;;;;0.65;0.65;;;;;;;;;;5021123;28;20025;-76
2023/08/12 11:07:18;;;;;;;0.82;0.82;;;;;;;;;;5008727;28;20033;-75
2023/08/12 11:09:45;;;;;;;1.17;0.85;;;;;;;;;;5025492;28;20504;-75
2023/08/12 11:12:11;;;;;;;1.27;0.93;;;;;;;;;;5008524;28;20032;-75
2023/08/12 11:14:54;;;;;;;0.60;0.60;;;;;;;;;;5030829;28;20033;-76
2023/08/12 11:17:27;;;;;;;0.98;0.75;;;;;;;;;;5016629;28;20119;-74
2023/08/12 11:19:53;;;;;;;0.65;0.52;;;;;;;;;;5011671;28;20057;-76
2023/08/12 11:22:19;;;;;;;1.13;0.75;;;;;;;;;;5012206;28;20030;-74
2023/08/12 11:24:45;;;;;;;1.13;0.80;;;;;;;;;;5012846;28;20052;-75
2023/08/12 11:27:10;;;;;;;1.63;0.98;;;;;;;;;;5014890;28;20374;-75
2023/08/12 11:29:37;;;;;;;0.90;0.80;;;;;;;;;;5030306;28;20552;-74
2023/08/12 11:32:03;;;;;;;2.05;1.27;;;;;;;;;;5030601;28;20034;-74
2023/08/12 11:34:29;;;;;;;1.08;0.85;;;;;;;;;;5031007;28;20117;-75
2023/08/12 11:36:56;;;;;;;0.95;0.80;;;;;;;;;;5030713;28;20147;-75
2023/08/12 11:39:21;;;;;;;0.88;0.88;;;;;;;;;;5030962;28;20037;-74
2023/08/12 11:41:50;;;;;;;1.00;0.93;;;;;;;;;;5030480;28;20060;-76
2023/08/12 11:44:17;;;;;;;0.70;0.70;;;;;;;;;;5030932;28;20041;-75
2023/08/12 11:46:42;;;;;;;1.60;1.50;;;;;;;;;;5031626;28;20037;-74
2023/08/12 11:49:08;;;;;;;0.82;0.80;;;;;;;;;;5021766;28;20045;-73
2023/08/12 11:51:34;;;;;;;1.77;1.08;;;;;;;;;;5022334;28;20075;-76
2023/08/12 11:54:00;;;;;;;1.00;0.90;;;;;;;;;;5031524;28;20061;-75
2023/08/12 11:56:26;;;;;;;2.50;1.05;;;;;;;;;;5031463;28;20049;-75
2023/08/12 11:58:54;;;;;;;0.63;0.60;;;;;;;;;;5030249;28;20045;-74
2023/08/12 12:01:21;;;;;;;1.27;1.17;;;;;;;;;;5013457;28;20064;-75
2023/08/12 12:03:52;;;;;;;6.47;0.98;;;;;;;;;;5028427;28;20045;-75
2023/08/12 12:06:27;;;;;;;0.52;0.52;;;;;;;;;;5032644;28;20033;-76
2023/08/12 12:08:54;;;;;;;0.77;0.77;;;;;;;;;;5033350;28;20105;-75
2023/08/12 12:11:20;;;;;;;0.47;0.47;;;;;;;;;;5030088;28;20501;-75
2023/08/12 12:13:47;;;;;;;0.38;0.38;;;;;;;;;;5028798;28;20040;-73
2023/08/12 12:16:12;;;;;;;0.70;0.70;;;;;;;;;;5031905;28;20117;-74
2023/08/12 12:18:38;;;;;;;2.38;1.10;;;;;;;;;;5031224;28;20540;-75
2023/08/12 12:21:04;;;;;;;1.25;1.02;;;;;;;;;;5029591;28;20462;-76
2023/08/12 12:23:30;;;;;;;0.45;0.45;;;;;;;;;;5030962;28;20435;-73
2023/08/12 12:25:59;;;;;;;0.65;0.65;;;;;;;;;;5028169;28;20029;-73
2023/08/12 12:28:25;;;;;;;3.33;1.35;;;;;;;;;;5030835;28;20064;-74
2023/08/12 12:30:51;;;;;;;0.38;0.38;;;;;;;;;;5012162;28;20065;-74
2023/08/12 12:33:17;;;;;;;0.50;0.50;;;;;;;;;;5030490;28;20039;-73
2023/08/12 12:35:43;;;;;;;0.77;0.70;;;;;;;;;;5029169;28;20038;-73
2023/08/12 12:38:09;;;;;;;0.85;0.85;;;;;;;;;;5028021;28;20037;-75
2023/08/12 12:40:35;;;;;;;0.70;0.70;;;;;;;;;;5030989;28;20091;-75
2023/08/12 12:43:02;;;;;;;4.97;1.63;;;;;;;;;;5027289;28;20025;-76
2023/08/12 12:45:28;;;;;;;0.63;0.63;;;;;;;;;;5030672;28;20048;-73
2023/08/12 12:47:54;;;;;;;0.50;0.50;;;;;;;;;;5030939;28;20041;-75
2023/08/12 12:50:19;;;;;;;0.55;0.55;;;;;;;;;;5030595;28;20121;-75
2023/08/12 12:52:45;;;;;;;1.15;1.05;;;;;;;;;;5030669;28;20040;-73
2023/08/12 12:55:10;;;;;;;0.45;0.45;;;;;;;;;;5030437;28;20037;-75
2023/08/12 12:57:36;;;;;;;0.63;0.63;;;;;;;;;;5012855;28;20041;-73
2023/08/12 13:00:04;;;;;;;0.98;0.90;;;;;;;;;;5012348;28;20663;-74
2023/08/12 13:02:29;;;;;;;0.50;0.50;;;;;;;;;;5012367;28;20389;-75
2023/08/12 13:04:55;;;;;;;0.50;0.50;;;;;;;;;;5030190;28;20044;-75
2023/08/12 13:07:21;;;;;;;1.73;1.23;;;;;;;;;;5030067;28;20444;-72
2023/08/12 13:09:46;;;;;;;3.33;1.33;;;;;;;;;;5012746;28;20041;-73
2023/08/12 13:12:12;;;;;;;1.10;1.08;;;;;;;;;;5024503;28;20189;-73
2023/08/12 13:14:38;;;;;;;0.70;0.70;;;;;;;;;;5030004;28;20049;-73
2023/08/12 13:17:03;;;;;;;0.50;0.50;;;;;;;;;;5030205;28;20041;-72
2023/08/12 13:19:29;;;;;;;1.67;1.50;;;;;;;;;;5029814;28;20435;-73
2023/08/12 13:21:54;;;;;;;1.90;1.73;;;;;;;;;;5030094;28;20044;-73
2023/08/12 13:24:20;;;;;;;0.40;0.40;;;;;;;;;;5029854;28;20502;-75
2023/08/12 13:26:46;;;;;;;3.67;1.35;;;;;;;;;;5027325;28;20112;-75
2023/08/12 13:29:11;;;;;;;1.05;0.95;;;;;;;;;;5029076;28;20079;-72
2023/08/12 13:31:37;;;;;;;1.15;0.70;;;;;;;;;;5029233;28;20033;-73
2023/08/12 13:34:02;;;;;;;1.90;1.80;;;;;;;;;;5029918;28;20060;-73
2023/08/12 13:36:29;;;;;;;0.50;0.50;;;;;;;;;;5029282;28;20033;-72
2023/08/12 13:38:55;;;;;;;1.65;1.20;;;;;;;;;;5012394;28;20030;-72
2023/08/12 13:41:21;;;;;;;1.65;0.60;;;;;;;;;;5035611;28;20499;-73
2023/08/12 13:43:47;;;;;;;0.52;0.52;;;;;;;;;;5035320;28;20038;-75
2023/08/12 13:46:13;;;;;;;0.60;0.60;;;;;;;;;;5035641;28;20033;-74
2023/08/12 13:48:38;;;;;;;1.25;0.98;;;;;;;;;;5034582;28;20069;-72
2023/08/12 13:51:04;;;;;;;1.27;0.73;;;;;;;;;;5035384;28;20029;-74
2023/08/12 13:53:30;;;;;;;0.40;0.40;;;;;;;;;;5035334;28;20456;-74
2023/08/12 13:55:56;;;;;;;2.28;1.38;;;;;;;;;;5035246;28;20041;-73
2023/08/12 13:58:22;;;;;;;0.50;0.50;;;;;;;;;;5031264;28;20044;-72
2023/08/12 14:00:47;;;;;;;0.90;0.80;;;;;;;;;;5033801;28;20026;-72
2023/08/12 14:03:13;;;;;;;1.88;1.10;;;;;;;;;;5013862;28;20060;-73
2023/08/12 14:05:39;;;;;;;0.35;0.35;;;;;;;;;;5022030;28;20030;-76
2023/08/12 14:08:05;;;;;;;1.35;1.13;;;;;;;;;;5017157;28;20113;-74
2023/08/12 14:10:30;;;;;;;1.00;1.00;;;;;;;;;;5024730;28;20022;-73
2023/08/12 14:12:56;;;;;;;0.50;0.50;;;;;;;;;;5019703;28;20044;-72
2023/08/12 14:15:21;;;;;;;1.27;0.75;;;;;;;;;;5001659;28;20115;-72
2023/08/12 14:17:47;;;;;;;0.93;0.75;;;;;;;;;;4997538;28;20038;-72
2023/08/12 14:20:15;;;;;;;2.22;1.10;;;;;;;;;;5028036;28;20187;-73
2023/08/12 14:22:40;;;;;;;1.98;0.73;;;;;;;;;;4999484;28;20073;-73
2023/08/12 14:25:07;;;;;;;1.92;1.00;;;;;;;;;;5009220;28;20077;-73
2023/08/12 14:27:32;;;;;;;1.15;1.05;;;;;;;;;;5009537;28;20053;-72
2023/08/12 14:29:58;;;;;;;0.40;0.40;;;;;;;;;;4994233;28;20040;-76
2023/08/12 14:32:23;;;;;;;0.63;0.60;;;;;;;;;;5023958;28;20041;-75
2023/08/12 14:34:49;;;;;;;1.58;1.00;;;;;;;;;;5022371;28;20034;-73
2023/08/12 14:37:15;;;;;;;0.30;0.30;;;;;;;;;;5027846;28;20108;-73